sensor_id;sensor_type;location;lat;lon;timestamp;P1;durP1;ratioP1;P2;durP2;ratioP2
1887;SDS011;944;51.574;6.980;2023-07-24T00:01:39;9.73;;;5.30;;
1887;SDS011;944;51.574;6.980;2023-07-24T00:04:06;6.20;;;4.23;;
1887;SDS011;944;51.574;6.980;2023-07-24T00:06:33;12.27;;;5.80;;
1887;SDS011;944;51.574;6.980;2023-07-24T00:09:00;10.80;;;5.57;;
1887;SDS011;944;51.574;6.980;2023-07-24T00:11:27;11.47;;;5.60;;
1887;SDS011;944;51.574;6.980;2023-07-24T00:13:54;16.50;;;5.80;;
1887;SDS011;944;51.574;6.980;2023-07-24T00:16:22;6.77;;;5.07;;
1887;SDS011;944;51.574;6.980;2023-07-24T00:18:49;8.30;;;5.30;;
1887;SDS011;944;51.574;6.980;2023-07-24T00:21:16;8.33;;;5.63;;
1887;SDS011;944;51.574;6.980;2023-07-24T00:23:43;6.70;;;5.20;;
1887;SDS011;944;51.574;6.980;2023-07-24T00:26:09;7.40;;;5.50;;
1887;SDS011;944;51.574;6.980;2023-07-24T00:28:36;6.83;;;4.90;;
1887;SDS011;944;51.574;6.980;2023-07-24T00:31:03;6.33;;;4.60;;
1887;SDS011;944;51.574;6.980;2023-07-24T00:33:32;6.57;;;5.27;;
1887;SDS011;944;51.574;6.980;2023-07-24T00:35:59;8.50;;;4.90;;
1887;SDS011;944;51.574;6.980;2023-07-24T00:38:26;5.37;;;4.87;;
1887;SDS011;944;51.574;6.980;2023-07-24T00:40:52;7.30;;;5.27;;
1887;SDS011;944;51.574;6.980;2023-07-24T00:43:19;7.23;;;4.67;;
1887;SDS011;944;51.574;6.980;2023-07-24T00:45:46;8.53;;;5.10;;
1887;SDS011;944;51.574;6.980;2023-07-24T00:48:14;8.03;;;5.63;;
1887;SDS011;944;51.574;6.980;2023-07-24T00:50:43;9.30;;;4.53;;
1887;SDS011;944;51.574;6.980;2023-07-24T00:53:10;6.67;;;5.30;;
1887;SDS011;944;51.574;6.980;2023-07-24T00:55:38;7.80;;;5.60;;
1887;SDS011;944;51.574;6.980;2023-07-24T00:58:06;6.93;;;5.23;;
1887;SDS011;944;51.574;6.980;2023-07-24T01:00:33;8.97;;;5.20;;
1887;SDS011;944;51.574;6.980;2023-07-24T01:03:00;7.33;;;5.53;;
1887;SDS011;944;51.574;6.980;2023-07-24T01:05:27;8.33;;;5.70;;
1887;SDS011;944;51.574;6.980;2023-07-24T01:07:56;10.63;;;5.60;;
1887;SDS011;944;51.574;6.980;2023-07-24T01:10:23;6.17;;;4.80;;
1887;SDS011;944;51.574;6.980;2023-07-24T01:12:51;9.67;;;4.90;;
1887;SDS011;944;51.574;6.980;2023-07-24T01:15:26;8.97;;;5.50;;
1887;SDS011;944;51.574;6.980;2023-07-24T01:17:59;6.47;;;5.13;;
1887;SDS011;944;51.574;6.980;2023-07-24T01:20:28;6.30;;;4.93;;
1887;SDS011;944;51.574;6.980;2023-07-24T01:25:55;7.77;;;5.37;;
1887;SDS011;944;51.574;6.980;2023-07-24T01:28:23;7.77;;;4.77;;
1887;SDS011;944;51.574;6.980;2023-07-24T01:30:50;5.70;;;4.73;;
1887;SDS011;944;51.574;6.980;2023-07-24T01:33:17;7.37;;;4.93;;
1887;SDS011;944;51.574;6.980;2023-07-24T01:35:45;6.53;;;4.90;;
1887;SDS011;944;51.574;6.980;2023-07-24T01:38:16;10.00;;;5.23;;
1887;SDS011;944;51.574;6.980;2023-07-24T01:40:43;11.73;;;5.00;;
1887;SDS011;944;51.574;6.980;2023-07-24T01:43:12;6.13;;;5.20;;
1887;SDS011;944;51.574;6.980;2023-07-24T01:45:39;8.00;;;5.00;;
1887;SDS011;944;51.574;6.980;2023-07-24T01:48:06;7.57;;;4.90;;
1887;SDS011;944;51.574;6.980;2023-07-24T01:50:33;11.00;;;5.47;;
1887;SDS011;944;51.574;6.980;2023-07-24T01:53:01;6.73;;;4.97;;
1887;SDS011;944;51.574;6.980;2023-07-24T01:55:27;7.13;;;5.07;;
1887;SDS011;944;51.574;6.980;2023-07-24T01:57:54;8.20;;;4.90;;
1887;SDS011;944;51.574;6.980;2023-07-24T02:00:23;7.93;;;5.00;;
1887;SDS011;944;51.574;6.980;2023-07-24T02:02:50;6.23;;;5.00;;
1887;SDS011;944;51.574;6.980;2023-07-24T02:05:17;9.17;;;5.90;;
1887;SDS011;944;51.574;6.980;2023-07-24T02:07:44;8.97;;;5.20;;
1887;SDS011;944;51.574;6.980;2023-07-24T02:10:11;7.30;;;5.13;;
1887;SDS011;944;51.574;6.980;2023-07-24T02:12:37;5.63;;;4.97;;
1887;SDS011;944;51.574;6.980;2023-07-24T02:15:05;9.07;;;5.60;;
1887;SDS011;944;51.574;6.980;2023-07-24T02:17:34;9.67;;;5.43;;
1887;SDS011;944;51.574;6.980;2023-07-24T02:20:02;6.10;;;4.77;;
1887;SDS011;944;51.574;6.980;2023-07-24T02:22:30;13.80;;;5.17;;
1887;SDS011;944;51.574;6.980;2023-07-24T02:24:57;14.57;;;6.37;;
1887;SDS011;944;51.574;6.980;2023-07-24T02:27:24;10.00;;;5.87;;
1887;SDS011;944;51.574;6.980;2023-07-24T02:29:53;12.40;;;6.13;;
1887;SDS011;944;51.574;6.980;2023-07-24T02:32:20;11.70;;;6.40;;
1887;SDS011;944;51.574;6.980;2023-07-24T02:34:49;11.97;;;5.87;;
1887;SDS011;944;51.574;6.980;2023-07-24T02:37:17;12.53;;;6.30;;
1887;SDS011;944;51.574;6.980;2023-07-24T02:39:45;12.37;;;6.20;;
1887;SDS011;944;51.574;6.980;2023-07-24T02:42:12;11.07;;;6.57;;
1887;SDS011;944;51.574;6.980;2023-07-24T02:44:39;11.20;;;6.47;;
1887;SDS011;944;51.574;6.980;2023-07-24T02:47:06;8.50;;;5.40;;
1887;SDS011;944;51.574;6.980;2023-07-24T02:49:33;11.80;;;6.30;;
1887;SDS011;944;51.574;6.980;2023-07-24T02:52:01;10.40;;;5.40;;
1887;SDS011;944;51.574;6.980;2023-07-24T02:54:29;8.57;;;5.20;;
1887;SDS011;944;51.574;6.980;2023-07-24T02:56:55;8.57;;;5.10;;
1887;SDS011;944;51.574;6.980;2023-07-24T02:59:23;9.50;;;5.20;;
1887;SDS011;944;51.574;6.980;2023-07-24T03:01:50;10.37;;;5.40;;
1887;SDS011;944;51.574;6.980;2023-07-24T03:04:17;9.03;;;5.27;;
1887;SDS011;944;51.574;6.980;2023-07-24T03:06:43;11.13;;;5.20;;
1887;SDS011;944;51.574;6.980;2023-07-24T03:09:12;7.87;;;5.07;;
1887;SDS011;944;51.574;6.980;2023-07-24T03:11:39;9.17;;;5.97;;
1887;SDS011;944;51.574;6.980;2023-07-24T03:14:06;15.00;;;5.10;;
1887;SDS011;944;51.574;6.980;2023-07-24T03:16:33;8.57;;;5.10;;
1887;SDS011;944;51.574;6.980;2023-07-24T03:19:00;6.80;;;5.57;;
1887;SDS011;944;51.574;6.980;2023-07-24T03:21:27;12.00;;;5.57;;
1887;SDS011;944;51.574;6.980;2023-07-24T03:23:54;18.90;;;5.80;;
1887;SDS011;944;51.574;6.980;2023-07-24T03:26:22;8.60;;;5.30;;
1887;SDS011;944;51.574;6.980;2023-07-24T03:28:49;8.73;;;5.50;;
1887;SDS011;944;51.574;6.980;2023-07-24T03:31:15;11.93;;;6.37;;
1887;SDS011;944;51.574;6.980;2023-07-24T03:33:42;8.27;;;5.70;;
1887;SDS011;944;51.574;6.980;2023-07-24T03:36:09;9.90;;;5.27;;
1887;SDS011;944;51.574;6.980;2023-07-24T03:38:36;9.33;;;5.40;;
1887;SDS011;944;51.574;6.980;2023-07-24T03:41:03;12.27;;;5.27;;
1887;SDS011;944;51.574;6.980;2023-07-24T03:43:31;11.60;;;6.40;;
1887;SDS011;944;51.574;6.980;2023-07-24T03:45:58;17.20;;;5.67;;
1887;SDS011;944;51.574;6.980;2023-07-24T03:48:25;15.73;;;6.40;;
1887;SDS011;944;51.574;6.980;2023-07-24T03:50:57;15.63;;;6.57;;
1887;SDS011;944;51.574;6.980;2023-07-24T03:53:24;8.57;;;7.00;;
1887;SDS011;944;51.574;6.980;2023-07-24T03:55:51;12.40;;;7.00;;
1887;SDS011;944;51.574;6.980;2023-07-24T03:58:18;15.50;;;6.83;;
1887;SDS011;944;51.574;6.980;2023-07-24T04:00:47;10.50;;;6.10;;
1887;SDS011;944;51.574;6.980;2023-07-24T04:03:15;13.10;;;7.20;;
1887;SDS011;944;51.574;6.980;2023-07-24T04:05:42;10.53;;;7.20;;
1887;SDS011;944;51.574;6.980;2023-07-24T04:08:09;11.87;;;7.13;;
1887;SDS011;944;51.574;6.980;2023-07-24T04:10:36;15.90;;;7.03;;
1887;SDS011;944;51.574;6.980;2023-07-24T04:13:03;11.87;;;7.23;;
1887;SDS011;944;51.574;6.980;2023-07-24T04:15:30;15.80;;;7.47;;
1887;SDS011;944;51.574;6.980;2023-07-24T04:17:58;10.00;;;7.23;;
1887;SDS011;944;51.574;6.980;2023-07-24T04:20:25;11.07;;;6.70;;
1887;SDS011;944;51.574;6.980;2023-07-24T04:22:51;14.07;;;6.73;;
1887;SDS011;944;51.574;6.980;2023-07-24T04:25:18;16.33;;;7.20;;
1887;SDS011;944;51.574;6.980;2023-07-24T04:27:45;10.07;;;7.00;;
1887;SDS011;944;51.574;6.980;2023-07-24T04:30:12;15.50;;;7.73;;
1887;SDS011;944;51.574;6.980;2023-07-24T04:32:39;19.47;;;8.63;;
1887;SDS011;944;51.574;6.980;2023-07-24T04:35:08;12.13;;;7.50;;
1887;SDS011;944;51.574;6.980;2023-07-24T04:37:35;12.93;;;7.10;;
1887;SDS011;944;51.574;6.980;2023-07-24T04:40:02;17.33;;;7.67;;
1887;SDS011;944;51.574;6.980;2023-07-24T04:42:33;15.47;;;7.73;;
1887;SDS011;944;51.574;6.980;2023-07-24T04:45:00;14.33;;;7.60;;
1887;SDS011;944;51.574;6.980;2023-07-24T04:47:27;18.83;;;9.37;;
1887;SDS011;944;51.574;6.980;2023-07-24T04:49:54;11.07;;;7.30;;
1887;SDS011;944;51.574;6.980;2023-07-24T04:52:22;16.00;;;7.70;;
1887;SDS011;944;51.574;6.980;2023-07-24T04:54:50;14.50;;;8.23;;
1887;SDS011;944;51.574;6.980;2023-07-24T04:57:17;12.73;;;8.00;;
1887;SDS011;944;51.574;6.980;2023-07-24T04:59:47;19.90;;;8.30;;
1887;SDS011;944;51.574;6.980;2023-07-24T05:02:14;16.60;;;7.70;;
1887;SDS011;944;51.574;6.980;2023-07-24T05:04:41;16.33;;;8.10;;
1887;SDS011;944;51.574;6.980;2023-07-24T05:07:12;15.60;;;8.03;;
1887;SDS011;944;51.574;6.980;2023-07-24T05:09:41;15.57;;;8.00;;
1887;SDS011;944;51.574;6.980;2023-07-24T05:12:11;15.43;;;8.27;;
1887;SDS011;944;51.574;6.980;2023-07-24T05:14:38;17.77;;;8.40;;
1887;SDS011;944;51.574;6.980;2023-07-24T05:17:05;19.80;;;8.23;;
1887;SDS011;944;51.574;6.980;2023-07-24T05:19:32;23.87;;;8.60;;
1887;SDS011;944;51.574;6.980;2023-07-24T05:22:00;21.03;;;9.13;;
1887;SDS011;944;51.574;6.980;2023-07-24T05:24:27;15.10;;;8.50;;
1887;SDS011;944;51.574;6.980;2023-07-24T05:26:55;18.10;;;8.90;;
1887;SDS011;944;51.574;6.980;2023-07-24T05:29:22;16.27;;;8.33;;
1887;SDS011;944;51.574;6.980;2023-07-24T05:31:51;19.40;;;8.90;;
1887;SDS011;944;51.574;6.980;2023-07-24T05:34:18;25.70;;;8.63;;
1887;SDS011;944;51.574;6.980;2023-07-24T05:36:45;17.10;;;8.97;;
1887;SDS011;944;51.574;6.980;2023-07-24T05:39:12;16.87;;;9.40;;
1887;SDS011;944;51.574;6.980;2023-07-24T05:41:41;19.10;;;9.50;;
1887;SDS011;944;51.574;6.980;2023-07-24T05:47:50;16.50;;;7.97;;
1887;SDS011;944;51.574;6.980;2023-07-24T05:50:17;25.20;;;9.10;;
1887;SDS011;944;51.574;6.980;2023-07-24T05:52:44;14.47;;;8.70;;
1887;SDS011;944;51.574;6.980;2023-07-24T05:55:11;39.47;;;9.03;;
1887;SDS011;944;51.574;6.980;2023-07-24T05:57:38;17.10;;;7.07;;
1887;SDS011;944;51.574;6.980;2023-07-24T06:00:08;13.70;;;7.73;;
1887;SDS011;944;51.574;6.980;2023-07-24T06:02:38;11.20;;;6.70;;
1887;SDS011;944;51.574;6.980;2023-07-24T06:05:07;14.57;;;7.50;;
1887;SDS011;944;51.574;6.980;2023-07-24T06:07:34;13.40;;;7.47;;
1887;SDS011;944;51.574;6.980;2023-07-24T06:10:02;16.07;;;7.50;;
1887;SDS011;944;51.574;6.980;2023-07-24T06:12:29;13.07;;;7.70;;
1887;SDS011;944;51.574;6.980;2023-07-24T06:14:56;11.80;;;7.27;;
1887;SDS011;944;51.574;6.980;2023-07-24T06:17:23;11.00;;;7.93;;
1887;SDS011;944;51.574;6.980;2023-07-24T06:19:50;12.87;;;6.90;;
1887;SDS011;944;51.574;6.980;2023-07-24T06:22:19;13.93;;;7.07;;
1887;SDS011;944;51.574;6.980;2023-07-24T06:24:46;16.20;;;7.73;;
1887;SDS011;944;51.574;6.980;2023-07-24T06:27:13;14.83;;;7.20;;
1887;SDS011;944;51.574;6.980;2023-07-24T06:29:40;11.17;;;7.30;;
1887;SDS011;944;51.574;6.980;2023-07-24T06:32:07;14.27;;;8.00;;
1887;SDS011;944;51.574;6.980;2023-07-24T06:34:35;13.00;;;7.30;;
1887;SDS011;944;51.574;6.980;2023-07-24T06:37:02;17.33;;;7.67;;
1887;SDS011;944;51.574;6.980;2023-07-24T06:39:31;15.60;;;8.40;;
1887;SDS011;944;51.574;6.980;2023-07-24T06:42:00;14.87;;;7.30;;
1887;SDS011;944;51.574;6.980;2023-07-24T06:44:27;11.80;;;8.13;;
1887;SDS011;944;51.574;6.980;2023-07-24T06:46:54;11.80;;;8.67;;
1887;SDS011;944;51.574;6.980;2023-07-24T06:49:21;14.30;;;8.37;;
1887;SDS011;944;51.574;6.980;2023-07-24T06:51:48;14.63;;;8.27;;
1887;SDS011;944;51.574;6.980;2023-07-24T06:54:15;12.63;;;7.80;;
1887;SDS011;944;51.574;6.980;2023-07-24T06:56:44;13.10;;;8.53;;
1887;SDS011;944;51.574;6.980;2023-07-24T06:59:13;18.50;;;8.73;;
1887;SDS011;944;51.574;6.980;2023-07-24T07:01:41;17.90;;;8.20;;
1887;SDS011;944;51.574;6.980;2023-07-24T07:04:08;12.30;;;7.80;;
1887;SDS011;944;51.574;6.980;2023-07-24T07:06:35;12.80;;;7.90;;
1887;SDS011;944;51.574;6.980;2023-07-24T07:09:06;11.47;;;8.07;;
1887;SDS011;944;51.574;6.980;2023-07-24T07:11:33;14.10;;;9.20;;
1887;SDS011;944;51.574;6.980;2023-07-24T07:14:01;11.77;;;8.57;;
1887;SDS011;944;51.574;6.980;2023-07-24T07:16:28;21.10;;;8.57;;
1887;SDS011;944;51.574;6.980;2023-07-24T07:18:55;6.97;;;5.80;;
1887;SDS011;944;51.574;6.980;2023-07-24T07:21:32;9.40;;;5.00;;
1887;SDS011;944;51.574;6.980;2023-07-24T07:33:37;10.13;;;4.27;;
1887;SDS011;944;51.574;6.980;2023-07-24T08:18:42;7.40;;;2.70;;
1887;SDS011;944;51.574;6.980;2023-07-24T08:31:48;9.87;;;5.93;;
1887;SDS011;944;51.574;6.980;2023-07-24T08:34:19;9.53;;;6.60;;
1887;SDS011;944;51.574;6.980;2023-07-24T08:36:48;9.07;;;6.17;;
1887;SDS011;944;51.574;6.980;2023-07-24T08:39:30;7.93;;;5.67;;
1887;SDS011;944;51.574;6.980;2023-07-24T08:42:00;8.90;;;6.10;;
1887;SDS011;944;51.574;6.980;2023-07-24T08:44:38;7.93;;;5.50;;
1887;SDS011;944;51.574;6.980;2023-07-24T08:47:09;12.87;;;6.03;;
1887;SDS011;944;51.574;6.980;2023-07-24T08:52:50;5.50;;;4.43;;
1887;SDS011;944;51.574;6.980;2023-07-24T08:55:42;4.60;;;3.80;;
1887;SDS011;944;51.574;6.980;2023-07-24T08:58:23;6.47;;;3.50;;
1887;SDS011;944;51.574;6.980;2023-07-24T09:01:04;4.93;;;4.30;;
1887;SDS011;944;51.574;6.980;2023-07-24T09:03:39;4.50;;;3.93;;
1887;SDS011;944;51.574;6.980;2023-07-24T09:06:15;8.30;;;6.17;;
1887;SDS011;944;51.574;6.980;2023-07-24T09:09:11;13.33;;;7.07;;
1887;SDS011;944;51.574;6.980;2023-07-24T09:11:48;10.67;;;7.10;;
1887;SDS011;944;51.574;6.980;2023-07-24T09:14:23;9.27;;;6.63;;
1887;SDS011;944;51.574;6.980;2023-07-24T09:17:05;9.93;;;6.43;;
1887;SDS011;944;51.574;6.980;2023-07-24T09:19:40;6.70;;;5.80;;
1887;SDS011;944;51.574;6.980;2023-07-24T09:22:11;6.13;;;5.07;;
1887;SDS011;944;51.574;6.980;2023-07-24T09:25:04;9.73;;;4.83;;
1887;SDS011;944;51.574;6.980;2023-07-24T09:27:32;8.17;;;5.50;;
1887;SDS011;944;51.574;6.980;2023-07-24T09:29:59;8.90;;;4.93;;
1887;SDS011;944;51.574;6.980;2023-07-24T09:36:18;5.80;;;4.00;;
1887;SDS011;944;51.574;6.980;2023-07-24T09:38:49;4.00;;;3.40;;
1887;SDS011;944;51.574;6.980;2023-07-24T09:42:02;3.90;;;3.50;;
1887;SDS011;944;51.574;6.980;2023-07-24T09:44:44;3.97;;;3.57;;
1887;SDS011;944;51.574;6.980;2023-07-24T09:47:31;7.20;;;3.00;;
1887;SDS011;944;51.574;6.980;2023-07-24T15:09:13;2.40;;;2.20;;
1887;SDS011;944;51.574;6.980;2023-07-24T15:19:11;8.83;;;3.20;;
1887;SDS011;944;51.574;6.980;2023-07-24T15:24:48;3.23;;;2.73;;
1887;SDS011;944;51.574;6.980;2023-07-24T15:27:22;10.83;;;4.47;;
1887;SDS011;944;51.574;6.980;2023-07-24T15:29:49;4.67;;;3.07;;
1887;SDS011;944;51.574;6.980;2023-07-24T15:32:16;3.77;;;3.37;;
1887;SDS011;944;51.574;6.980;2023-07-24T15:34:43;3.97;;;3.47;;
1887;SDS011;944;51.574;6.980;2023-07-24T15:37:11;5.33;;;3.57;;
1887;SDS011;944;51.574;6.980;2023-07-24T15:39:38;4.53;;;3.10;;
1887;SDS011;944;51.574;6.980;2023-07-24T16:03:13;8.00;;;4.83;;
1887;SDS011;944;51.574;6.980;2023-07-24T16:06:03;4.63;;;4.23;;
1887;SDS011;944;51.574;6.980;2023-07-24T16:08:30;8.70;;;5.10;;
1887;SDS011;944;51.574;6.980;2023-07-24T16:10:57;5.70;;;4.73;;
1887;SDS011;944;51.574;6.980;2023-07-24T16:16:03;6.00;;;4.50;;
1887;SDS011;944;51.574;6.980;2023-07-24T16:21:29;5.27;;;4.63;;
1887;SDS011;944;51.574;6.980;2023-07-24T16:24:01;6.63;;;4.60;;
1887;SDS011;944;51.574;6.980;2023-07-24T16:26:29;7.10;;;4.83;;
1887;SDS011;944;51.574;6.980;2023-07-24T16:28:59;9.23;;;5.87;;
1887;SDS011;944;51.574;6.980;2023-07-24T16:31:31;12.47;;;4.83;;
1887;SDS011;944;51.574;6.980;2023-07-24T16:33:58;5.57;;;4.80;;
1887;SDS011;944;51.574;6.980;2023-07-24T16:36:25;7.13;;;4.63;;
1887;SDS011;944;51.574;6.980;2023-07-24T16:38:52;11.37;;;3.80;;
1887;SDS011;944;51.574;6.980;2023-07-24T16:41:21;3.40;;;3.07;;
1887;SDS011;944;51.574;6.980;2023-07-24T16:43:48;3.13;;;2.60;;
1887;SDS011;944;51.574;6.980;2023-07-24T16:46:15;4.10;;;2.57;;
1887;SDS011;944;51.574;6.980;2023-07-24T16:48:44;3.50;;;2.53;;
1887;SDS011;944;51.574;6.980;2023-07-24T16:51:14;1.70;;;1.60;;
1887;SDS011;944;51.574;6.980;2023-07-24T16:53:46;2.83;;;1.93;;
1887;SDS011;944;51.574;6.980;2023-07-24T17:06:53;1.80;;;1.70;;
1887;SDS011;944;51.574;6.980;2023-07-24T17:09:20;3.30;;;2.50;;
1887;SDS011;944;51.574;6.980;2023-07-24T17:11:47;4.03;;;2.50;;
1887;SDS011;944;51.574;6.980;2023-07-24T17:14:14;3.57;;;2.13;;
1887;SDS011;944;51.574;6.980;2023-07-24T17:16:44;2.73;;;2.30;;
1887;SDS011;944;51.574;6.980;2023-07-24T17:19:16;3.30;;;2.57;;
1887;SDS011;944;51.574;6.980;2023-07-24T17:21:54;4.90;;;2.60;;
1887;SDS011;944;51.574;6.980;2023-07-24T17:24:22;3.77;;;2.70;;
1887;SDS011;944;51.574;6.980;2023-07-24T17:26:56;3.60;;;3.10;;
1887;SDS011;944;51.574;6.980;2023-07-24T17:29:25;4.00;;;3.20;;
1887;SDS011;944;51.574;6.980;2023-07-24T17:31:52;6.00;;;4.00;;
1887;SDS011;944;51.574;6.980;2023-07-24T17:34:21;7.83;;;3.80;;
1887;SDS011;944;51.574;6.980;2023-07-24T17:36:50;6.43;;;3.17;;
1887;SDS011;944;51.574;6.980;2023-07-24T17:39:20;5.97;;;3.73;;
1887;SDS011;944;51.574;6.980;2023-07-24T17:41:57;3.50;;;3.20;;
1887;SDS011;944;51.574;6.980;2023-07-24T17:44:41;6.67;;;3.60;;
1887;SDS011;944;51.574;6.980;2023-07-24T17:47:13;4.40;;;3.87;;
1887;SDS011;944;51.574;6.980;2023-07-24T17:49:40;4.40;;;3.60;;
1887;SDS011;944;51.574;6.980;2023-07-24T17:52:18;4.10;;;3.70;;
1887;SDS011;944;51.574;6.980;2023-07-24T17:54:48;10.13;;;3.80;;
1887;SDS011;944;51.574;6.980;2023-07-24T17:57:42;6.83;;;4.50;;
1887;SDS011;944;51.574;6.980;2023-07-24T18:00:26;6.83;;;3.80;;
1887;SDS011;944;51.574;6.980;2023-07-24T18:02:58;9.10;;;4.40;;
1887;SDS011;944;51.574;6.980;2023-07-24T18:05:29;5.40;;;3.93;;
1887;SDS011;944;51.574;6.980;2023-07-24T18:08:00;8.37;;;4.90;;
1887;SDS011;944;51.574;6.980;2023-07-24T18:10:29;7.10;;;4.27;;
1887;SDS011;944;51.574;6.980;2023-07-24T18:12:59;10.17;;;4.97;;
1887;SDS011;944;51.574;6.980;2023-07-24T18:15:27;9.33;;;4.60;;
1887;SDS011;944;51.574;6.980;2023-07-24T18:17:54;6.47;;;4.13;;
1887;SDS011;944;51.574;6.980;2023-07-24T18:20:21;7.53;;;4.50;;
1887;SDS011;944;51.574;6.980;2023-07-24T18:22:57;10.63;;;5.13;;
1887;SDS011;944;51.574;6.980;2023-07-24T18:25:29;5.93;;;4.60;;
1887;SDS011;944;51.574;6.980;2023-07-24T18:27:59;5.07;;;4.30;;
1887;SDS011;944;51.574;6.980;2023-07-24T18:30:36;8.47;;;4.23;;
1887;SDS011;944;51.574;6.980;2023-07-24T18:33:03;5.80;;;4.77;;
1887;SDS011;944;51.574;6.980;2023-07-24T18:35:35;6.00;;;4.90;;
1887;SDS011;944;51.574;6.980;2023-07-24T18:38:04;5.50;;;4.50;;
1887;SDS011;944;51.574;6.980;2023-07-24T18:40:38;6.33;;;5.10;;
1887;SDS011;944;51.574;6.980;2023-07-24T18:43:06;7.70;;;5.13;;
1887;SDS011;944;51.574;6.980;2023-07-24T18:45:46;9.20;;;5.07;;
1887;SDS011;944;51.574;6.980;2023-07-24T18:48:22;6.23;;;5.03;;
1887;SDS011;944;51.574;6.980;2023-07-24T18:50:51;6.80;;;5.80;;
1887;SDS011;944;51.574;6.980;2023-07-24T18:53:26;7.83;;;5.70;;
1887;SDS011;944;51.574;6.980;2023-07-24T18:55:56;7.40;;;5.70;;
1887;SDS011;944;51.574;6.980;2023-07-24T18:58:26;6.97;;;5.50;;
1887;SDS011;944;51.574;6.980;2023-07-24T19:00:55;7.83;;;5.63;;
1887;SDS011;944;51.574;6.980;2023-07-24T19:03:30;8.80;;;6.50;;
1887;SDS011;944;51.574;6.980;2023-07-24T19:06:01;10.63;;;5.93;;
1887;SDS011;944;51.574;6.980;2023-07-24T19:08:40;8.83;;;6.97;;
1887;SDS011;944;51.574;6.980;2023-07-24T19:11:29;7.87;;;6.53;;
1887;SDS011;944;51.574;6.980;2023-07-24T19:15:47;7.97;;;6.50;;
1887;SDS011;944;51.574;6.980;2023-07-24T19:18:10;8.20;;;6.03;;
1887;SDS011;944;51.574;6.980;2023-07-24T19:20:53;10.23;;;6.93;;
1887;SDS011;944;51.574;6.980;2023-07-24T19:23:56;8.53;;;6.77;;
1887;SDS011;944;51.574;6.980;2023-07-24T19:26:54;10.97;;;7.17;;
1887;SDS011;944;51.574;6.980;2023-07-24T19:32:44;9.53;;;5.53;;
1887;SDS011;944;51.574;6.980;2023-07-24T19:35:54;6.83;;;5.20;;
1887;SDS011;944;51.574;6.980;2023-07-24T19:38:47;11.43;;;5.20;;
1887;SDS011;944;51.574;6.980;2023-07-24T19:41:32;5.97;;;4.90;;
1887;SDS011;944;51.574;6.980;2023-07-24T19:44:27;6.03;;;5.43;;
1887;SDS011;944;51.574;6.980;2023-07-24T19:47:12;11.60;;;5.70;;
1887;SDS011;944;51.574;6.980;2023-07-24T19:49:48;10.70;;;5.90;;
1887;SDS011;944;51.574;6.980;2023-07-24T19:52:34;8.93;;;6.07;;
1887;SDS011;944;51.574;6.980;2023-07-24T19:55:25;7.57;;;5.60;;
1887;SDS011;944;51.574;6.980;2023-07-24T19:58:19;7.53;;;5.83;;
1887;SDS011;944;51.574;6.980;2023-07-24T20:01:31;10.87;;;6.17;;
1887;SDS011;944;51.574;6.980;2023-07-24T20:04:10;11.33;;;5.67;;
1887;SDS011;944;51.574;6.980;2023-07-24T20:07:04;9.90;;;6.77;;
1887;SDS011;944;51.574;6.980;2023-07-24T20:10:05;8.37;;;5.83;;
1887;SDS011;944;51.574;6.980;2023-07-24T20:12:47;8.60;;;5.37;;
1887;SDS011;944;51.574;6.980;2023-07-24T20:15:44;7.63;;;5.37;;
1887;SDS011;944;51.574;6.980;2023-07-24T20:18:44;8.63;;;5.23;;
1887;SDS011;944;51.574;6.980;2023-07-24T20:21:28;7.67;;;5.17;;
1887;SDS011;944;51.574;6.980;2023-07-24T20:24:31;13.60;;;5.23;;
1887;SDS011;944;51.574;6.980;2023-07-24T20:27:35;9.70;;;4.90;;
1887;SDS011;944;51.574;6.980;2023-07-24T20:30:33;7.67;;;4.53;;
1887;SDS011;944;51.574;6.980;2023-07-24T20:33:59;7.60;;;4.30;;
1887;SDS011;944;51.574;6.980;2023-07-24T20:36:55;8.23;;;4.83;;
1887;SDS011;944;51.574;6.980;2023-07-24T20:39:30;11.40;;;4.90;;
1887;SDS011;944;51.574;6.980;2023-07-24T20:42:42;10.50;;;5.20;;
1887;SDS011;944;51.574;6.980;2023-07-24T20:45:34;7.80;;;4.10;;
1887;SDS011;944;51.574;6.980;2023-07-24T20:49:02;11.30;;;3.90;;
1887;SDS011;944;51.574;6.980;2023-07-24T20:51:50;7.50;;;3.70;;
1887;SDS011;944;51.574;6.980;2023-07-24T20:57:22;7.07;;;3.40;;
1887;SDS011;944;51.574;6.980;2023-07-24T21:00:19;17.00;;;2.90;;
1887;SDS011;944;51.574;6.980;2023-07-24T21:03:07;5.33;;;2.77;;
1887;SDS011;944;51.574;6.980;2023-07-24T21:05:48;3.43;;;2.87;;
1887;SDS011;944;51.574;6.980;2023-07-24T21:08:24;5.67;;;2.93;;
1887;SDS011;944;51.574;6.980;2023-07-24T21:11:02;8.90;;;2.83;;
1887;SDS011;944;51.574;6.980;2023-07-24T21:13:47;5.10;;;3.40;;
1887;SDS011;944;51.574;6.980;2023-07-24T21:16:18;4.80;;;2.90;;
1887;SDS011;944;51.574;6.980;2023-07-24T21:22:41;5.23;;;2.53;;
1887;SDS011;944;51.574;6.980;2023-07-24T21:25:30;4.20;;;2.70;;
1887;SDS011;944;51.574;6.980;2023-07-24T21:28:15;7.20;;;2.70;;
1887;SDS011;944;51.574;6.980;2023-07-24T21:31:14;7.00;;;2.60;;
1887;SDS011;944;51.574;6.980;2023-07-24T21:33:51;7.60;;;2.90;;
1887;SDS011;944;51.574;6.980;2023-07-24T21:36:33;13.60;;;2.57;;
1887;SDS011;944;51.574;6.980;2023-07-24T21:39:05;6.40;;;2.83;;
1887;SDS011;944;51.574;6.980;2023-07-24T21:41:32;10.70;;;2.90;;
1887;SDS011;944;51.574;6.980;2023-07-24T21:44:05;6.17;;;2.43;;
1887;SDS011;944;51.574;6.980;2023-07-24T21:46:48;9.80;;;2.90;;
1887;SDS011;944;51.574;6.980;2023-07-24T21:49:17;8.47;;;3.20;;
1887;SDS011;944;51.574;6.980;2023-07-24T21:56:06;5.37;;;2.90;;
1887;SDS011;944;51.574;6.980;2023-07-24T21:58:44;3.97;;;2.50;;
1887;SDS011;944;51.574;6.980;2023-07-24T22:01:11;6.53;;;2.60;;
1887;SDS011;944;51.574;6.980;2023-07-24T22:03:57;6.00;;;2.37;;
1887;SDS011;944;51.574;6.980;2023-07-24T22:06:36;4.83;;;2.50;;
1887;SDS011;944;51.574;6.980;2023-07-24T22:09:07;5.73;;;2.27;;
1887;SDS011;944;51.574;6.980;2023-07-24T22:11:48;4.10;;;2.07;;
1887;SDS011;944;51.574;6.980;2023-07-24T22:14:16;5.20;;;2.13;;
1887;SDS011;944;51.574;6.980;2023-07-24T22:17:05;7.43;;;2.87;;
1887;SDS011;944;51.574;6.980;2023-07-24T22:19:49;5.43;;;2.57;;
1887;SDS011;944;51.574;6.980;2023-07-24T22:22:20;7.50;;;2.60;;
1887;SDS011;944;51.574;6.980;2023-07-24T22:25:08;5.87;;;2.80;;
1887;SDS011;944;51.574;6.980;2023-07-24T22:27:38;7.70;;;2.70;;
1887;SDS011;944;51.574;6.980;2023-07-24T22:33:53;6.87;;;2.83;;
1887;SDS011;944;51.574;6.980;2023-07-24T22:36:22;5.70;;;2.90;;
1887;SDS011;944;51.574;6.980;2023-07-24T22:39:17;5.57;;;2.60;;
1887;SDS011;944;51.574;6.980;2023-07-24T22:41:44;8.43;;;2.63;;
1887;SDS011;944;51.574;6.980;2023-07-24T22:44:17;6.67;;;3.20;;
1887;SDS011;944;51.574;6.980;2023-07-24T22:46:47;7.70;;;2.90;;
1887;SDS011;944;51.574;6.980;2023-07-24T22:49:17;10.10;;;2.73;;
1887;SDS011;944;51.574;6.980;2023-07-24T22:51:48;6.07;;;2.80;;
1887;SDS011;944;51.574;6.980;2023-07-24T22:54:23;4.57;;;2.53;;
1887;SDS011;944;51.574;6.980;2023-07-24T22:56:52;6.70;;;3.50;;
1887;SDS011;944;51.574;6.980;2023-07-24T23:02:18;8.93;;;3.77;;
1887;SDS011;944;51.574;6.980;2023-07-24T23:09:52;8.00;;;2.93;;
1887;SDS011;944;51.574;6.980;2023-07-24T23:12:25;7.50;;;3.70;;
1887;SDS011;944;51.574;6.980;2023-07-24T23:18:38;5.20;;;3.10;;
1887;SDS011;944;51.574;6.980;2023-07-24T23:23:59;9.70;;;3.47;;
1887;SDS011;944;51.574;6.980;2023-07-24T23:26:36;6.87;;;2.90;;
1887;SDS011;944;51.574;6.980;2023-07-24T23:29:04;6.37;;;3.20;;
1887;SDS011;944;51.574;6.980;2023-07-24T23:31:34;5.77;;;3.10;;
1887;SDS011;944;51.574;6.980;2023-07-24T23:34:03;5.77;;;3.33;;
1887;SDS011;944;51.574;6.980;2023-07-24T23:36:33;7.57;;;3.17;;
1887;SDS011;944;51.574;6.980;2023-07-24T23:39:00;7.00;;;3.77;;
1887;SDS011;944;51.574;6.980;2023-07-24T23:41:28;7.03;;;3.47;;
1887;SDS011;944;51.574;6.980;2023-07-24T23:44:00;3.47;;;2.93;;
1887;SDS011;944;51.574;6.980;2023-07-24T23:46:31;8.33;;;3.20;;
1887;SDS011;944;51.574;6.980;2023-07-24T23:49:00;5.77;;;2.90;;
1887;SDS011;944;51.574;6.980;2023-07-24T23:54:23;8.33;;;2.90;;
1887;SDS011;944;51.574;6.980;2023-07-24T23:56:51;7.10;;;2.93;;
1887;SDS011;944;51.574;6.980;2023-07-24T23:59:18;5.27;;;3.00;;
